Wilton, New Hampshire
Current Conditions -  °F | °C
As of 7:51 PM on Saturday 20 Dec 2014 (Local Time) from KASH Reporting Station
Overcast Overcast  
Wind Chill:   Ceiling: 3100
Heat Index:   Visibility: 10mi
Dew Point: -4°   Wind: 0mph
Humidity: 76%   Direction: NA
Pressure: 30.33"   Gusts: NA
Location:  42.85°N, 71.74°W
Report Text: KASH 210051Z 00000KT 10SM BKN031 OVC039 00/M04 A3033 RMK AO2 T00001038 SLP531
Loading
Personal Weather Stations






























Interactive Weather Map New forecast layout! Learn more

10-Day Weather Forecast

Advertisements
Track Severe Weather on mobile